Greenville, SC (29614)

4:20 PM EST on February 10, 2016 (GMT -0500)
Altamont Forest | | Change Station
CLOSE
Current Station
Personal Weather Station
Location: Greenville, SC
Elevation: 1818 ft
Nearby Weather Stations

Elev 1818 ft 34.94 °N, 82.41 °W | Updated 10 seconds ago

Clear
Clear
32.7 °F
Feels Like 33 °F
N
1.3
Wind Variable Wind from NW
Gusts 2.5 mph

Today
High -- | Low -- °F
--% Chance of Precip.
Yesterday
High -- | Low -- °F
Precip. -- in
Pressure 29.99 in
Visibility 10.0 miles
Clouds Clear
Windchill 33 °F
Dew Point 19 °F
Humidity 56%
Rainfall 0.00 in
Snow Depth Not available.
7:20 AM 6:07 PM
Waxing Crescent, 7% visible
METAR KGMU 102053Z 26014G21KT 10SM CLR 03/M17 A2997 RMK AO2 SLP156 T00281172 55001
Pressure 29.99 in
Visibility 10.0 miles
Clouds Clear
Windchill 33 °F
Dew Point 19 °F
Humidity 56%
Rainfall 0.00 in
Snow Depth Not available.
7:20 AM 6:07 PM
Waxing Crescent, 7% visible
METAR KGMU 102053Z 26014G21KT 10SM CLR 03/M17 A2997 RMK AO2 SLP156 T00281172 55001

10-Day Weather Forecast

Almanac

Astronomy

Feb. 10, 2016 Rise Set
Actual Time
Civil Twilight
Nautical Twilight
Astronomical Twilight
Moon
Length of Visible Light
Length of Day
Tomorrow will be .
, % of the Moon is Illuminated

Today's Extremes

State Highs State Lows

Community

WunderPhotos

Upload Photos

1,891,949 photos uploaded!

WunderBlog® & News

Nearby

Air Quality

  Air Quality AQ Index Pollutant
Not available.

Snow Depth

Station Depth Elevation

Earthquake Activity

City Distance Mag. Time & Date
Minimum magnitude displayed is 2.5.

Coastal Water Temperatures

Place Temperature

Stations

Nearby Weather Stations

Station Location Temp. Windchill Dew Point Humidity Wind Precip. Elev Updated Type
                   

Watches & Warnings

There are currently no watches in effect.